createdAt,value
2018-07-27T00:00:59.374Z,7.08
2018-07-27T00:03:28.318Z,9.10
2018-07-27T00:05:57.268Z,9.93
2018-07-27T00:08:26.209Z,8.18
2018-07-27T00:10:55.144Z,7.30
2018-07-27T00:13:24.514Z,7.70
2018-07-27T00:15:53.408Z,10.25
2018-07-27T00:18:22.375Z,10.60
2018-07-27T00:20:51.300Z,8.43
2018-07-27T00:23:20.312Z,7.95
2018-07-27T00:25:49.244Z,8.58
2018-07-27T00:28:18.556Z,9.75
2018-07-27T00:30:47.817Z,8.83
2018-07-27T00:33:16.804Z,10.48
2018-07-27T00:35:46.112Z,7.58
2018-07-27T00:38:15.139Z,10.25
2018-07-27T00:40:44.037Z,7.62
2018-07-27T00:43:13.047Z,11.70
2018-07-27T00:45:41.967Z,9.73
2018-07-27T00:48:11.071Z,9.53
2018-07-27T00:50:40.010Z,10.43
2018-07-27T00:53:08.991Z,11.65
2018-07-27T00:55:38.040Z,11.18
2018-07-27T00:58:07.103Z,10.80
2018-07-27T01:00:36.036Z,9.20
2018-07-27T01:03:05.032Z,11.63
2018-07-27T01:05:33.955Z,12.03
2018-07-27T01:08:03.138Z,10.32
2018-07-27T01:10:32.008Z,10.40
2018-07-27T01:13:01.576Z,10.05
2018-07-27T01:15:30.993Z,9.08
2018-07-27T01:17:59.987Z,12.90
2018-07-27T01:20:29.016Z,11.00
2018-07-27T01:22:57.971Z,10.15
2018-07-27T01:25:26.937Z,8.45
2018-07-27T01:27:55.885Z,10.50
2018-07-27T01:30:25.167Z,11.50
2018-07-27T01:32:54.110Z,10.13
2018-07-27T01:35:23.465Z,8.35
2018-07-27T01:37:52.397Z,10.45
2018-07-27T01:40:21.369Z,12.10
2018-07-27T01:42:50.327Z,10.88
2018-07-27T01:45:19.241Z,12.55
2018-07-27T01:47:48.189Z,13.00
2018-07-27T01:50:17.108Z,12.85
2018-07-27T01:52:46.244Z,12.23
2018-07-27T01:55:15.415Z,13.45
2018-07-27T01:57:44.350Z,10.40
2018-07-27T02:00:13.313Z,13.32
2018-07-27T02:02:42.255Z,11.80
2018-07-27T02:05:11.564Z,10.50
2018-07-27T02:07:40.246Z,13.55
2018-07-27T02:10:09.339Z,14.43
2018-07-27T02:12:38.613Z,10.72
2018-07-27T02:15:08.569Z,11.97
2018-07-27T02:17:37.868Z,12.28
2018-07-27T02:20:06.828Z,15.93
2018-07-27T02:22:36.274Z,11.25
2018-07-27T02:25:05.540Z,15.10
2018-07-27T02:27:34.478Z,12.63
2018-07-27T02:30:03.474Z,12.05
2018-07-27T02:32:32.559Z,11.43
2018-07-27T02:35:01.563Z,11.43
2018-07-27T02:37:30.492Z,12.33
2018-07-27T02:39:59.522Z,10.20
2018-07-27T02:42:29.360Z,11.12
2018-07-27T02:44:58.317Z,12.43
2018-07-27T02:47:27.607Z,10.85
2018-07-27T02:49:56.521Z,12.45
2018-07-27T02:52:25.679Z,10.03
2018-07-27T02:54:54.819Z,10.18
2018-07-27T02:57:23.817Z,9.00
2018-07-27T02:59:52.769Z,10.00
2018-07-27T03:02:21.691Z,15.18
2018-07-27T03:04:50.623Z,10.80
2018-07-27T03:07:19.884Z,10.65
2018-07-27T03:09:48.924Z,9.38
2018-07-27T03:12:17.990Z,10.30
2018-07-27T03:14:46.967Z,11.63
2018-07-27T03:17:15.893Z,10.45
2018-07-27T03:19:44.835Z,8.98
2018-07-27T03:22:14.261Z,10.13
2018-07-27T03:24:43.337Z,10.85
2018-07-27T03:27:12.291Z,10.00
2018-07-27T03:29:41.235Z,12.90
2018-07-27T03:32:10.211Z,11.03
2018-07-27T03:34:39.141Z,11.28
2018-07-27T03:37:08.076Z,9.08
2018-07-27T03:39:37.040Z,9.38
2018-07-27T03:42:06.371Z,10.82
2018-07-27T03:44:35.638Z,10.85
2018-07-27T03:47:04.670Z,18.10
2018-07-27T03:49:33.603Z,11.48
2018-07-27T03:52:02.894Z,12.60
2018-07-27T03:54:31.808Z,10.10
2018-07-27T03:57:00.748Z,11.08
2018-07-27T03:59:29.680Z,12.55
2018-07-27T04:01:58.774Z,12.50
2018-07-27T04:04:27.727Z,9.63
2018-07-27T04:06:56.735Z,10.95
2018-07-27T04:09:25.664Z,14.53
2018-07-27T04:11:54.634Z,10.75
2018-07-27T04:14:23.688Z,9.45
2018-07-27T04:16:52.727Z,11.08
2018-07-27T04:19:21.677Z,13.40
2018-07-27T04:21:50.344Z,11.88
2018-07-27T04:24:19.296Z,14.65
2018-07-27T04:26:48.249Z,9.85
2018-07-27T04:29:17.339Z,10.30
2018-07-27T04:31:46.331Z,8.75
2018-07-27T04:34:15.342Z,11.50
2018-07-27T04:36:44.436Z,10.68
2018-07-27T04:39:13.361Z,9.73
2018-07-27T04:41:42.679Z,9.90
2018-07-27T04:44:11.621Z,14.13
2018-07-27T04:46:40.702Z,13.78
2018-07-27T04:49:10.067Z,14.70
2018-07-27T04:51:39.011Z,14.35
2018-07-27T04:54:07.957Z,11.10
2018-07-27T04:56:37.090Z,14.50
2018-07-27T04:59:06.495Z,13.60
2018-07-27T05:01:35.474Z,11.80
2018-07-27T05:04:04.817Z,11.48
2018-07-27T05:06:33.774Z,12.82
2018-07-27T05:09:08.161Z,10.53
2018-07-27T05:11:37.097Z,11.97
2018-07-27T05:14:06.373Z,13.60
2018-07-27T05:16:35.391Z,13.53
2018-07-27T05:19:04.385Z,13.75
2018-07-27T05:21:34.075Z,13.32
2018-07-27T05:24:02.991Z,12.75
2018-07-27T05:26:32.094Z,11.50
2018-07-27T05:29:01.034Z,13.65
2018-07-27T05:31:30.718Z,12.60
2018-07-27T05:33:59.678Z,12.23
2018-07-27T05:36:28.658Z,14.68
2018-07-27T05:38:58.150Z,14.83
2018-07-27T05:41:27.268Z,13.10
2018-07-27T05:43:56.197Z,16.17
2018-07-27T05:46:25.190Z,14.58
2018-07-27T05:48:54.690Z,11.25
2018-07-27T05:51:23.608Z,13.62
2018-07-27T05:53:52.632Z,12.07
2018-07-27T05:56:21.574Z,10.68
2018-07-27T05:58:50.536Z,13.00
2018-07-27T06:01:19.581Z,11.88
2018-07-27T06:03:48.543Z,13.58
2018-07-27T06:06:17.806Z,14.20
2018-07-27T06:08:46.767Z,10.78
2018-07-27T06:11:15.964Z,13.58
2018-07-27T06:13:45.050Z,16.77
2018-07-27T06:16:14.366Z,11.12
2018-07-27T06:18:43.350Z,12.28
2018-07-27T06:21:12.377Z,12.95
2018-07-27T06:23:41.587Z,13.55
2018-07-27T06:26:10.734Z,13.35
2018-07-27T06:28:39.682Z,15.60
2018-07-27T06:31:09.060Z,15.48
2018-07-27T06:33:38.002Z,14.95
2018-07-27T06:36:07.298Z,12.78
2018-07-27T06:38:36.218Z,11.83
2018-07-27T06:41:05.336Z,13.43
2018-07-27T06:43:34.875Z,16.65
2018-07-27T06:46:04.213Z,13.70
2018-07-27T06:48:33.651Z,15.15
2018-07-27T06:51:02.787Z,11.95
2018-07-27T06:53:31.743Z,14.40
2018-07-27T06:56:00.705Z,14.60
2018-07-27T06:58:29.663Z,15.63
2018-07-27T07:00:58.632Z,15.78
2018-07-27T07:03:28.096Z,12.43
2018-07-27T07:05:57.219Z,13.22
2018-07-27T07:08:26.309Z,11.28
2018-07-27T07:10:55.276Z,12.73
2018-07-27T07:13:24.260Z,12.25
2018-07-27T07:15:53.190Z,10.35
2018-07-27T07:18:21.926Z,16.55
2018-07-27T07:20:50.924Z,13.60
2018-07-27T07:23:19.871Z,15.18
2018-07-27T07:25:48.946Z,12.05
2018-07-27T07:28:18.051Z,12.78
2018-07-27T07:30:47.002Z,12.65
2018-07-27T07:33:15.987Z,11.97
2018-07-27T07:35:45.114Z,15.98
2018-07-27T07:38:14.058Z,15.88
2018-07-27T07:40:43.018Z,13.32
2018-07-27T07:43:12.019Z,13.35
2018-07-27T07:45:41.008Z,12.98
2018-07-27T07:48:09.953Z,12.73
2018-07-27T07:50:38.996Z,13.65
2018-07-27T07:53:08.074Z,12.05
2018-07-27T07:55:37.426Z,15.80
2018-07-27T07:58:07.514Z,17.80
2018-07-27T08:00:36.735Z,14.47
2018-07-27T08:03:06.279Z,13.22
2018-07-27T08:05:35.361Z,16.73
2018-07-27T08:08:05.205Z,14.07
2018-07-27T08:10:34.710Z,13.55
2018-07-27T08:13:03.985Z,11.12
2018-07-27T08:15:33.003Z,15.70
2018-07-27T08:18:01.995Z,15.08
2018-07-27T08:20:30.687Z,12.17
2018-07-27T08:22:59.343Z,12.93
2018-07-27T08:25:36.613Z,11.87
2018-07-27T08:28:43.889Z,11.23
2018-07-27T08:31:12.684Z,10.47
2018-07-27T08:33:41.509Z,11.10
2018-07-27T08:36:10.388Z,12.03
2018-07-27T08:38:39.147Z,14.57
2018-07-27T08:41:08.054Z,9.57
2018-07-27T08:43:36.882Z,15.07
2018-07-27T08:46:05.613Z,9.57
2018-07-27T08:48:34.281Z,10.13
2018-07-27T08:51:02.939Z,11.23
2018-07-27T08:53:31.629Z,11.50
2018-07-27T08:56:00.273Z,11.20
2018-07-27T08:58:29.023Z,11.30
2018-07-27T09:00:57.780Z,11.17
2018-07-27T09:03:26.769Z,9.57
2018-07-27T09:05:55.808Z,12.17
2018-07-27T09:08:24.478Z,8.13
2018-07-27T09:10:53.556Z,10.63
2018-07-27T09:13:22.288Z,7.93
2018-07-27T09:15:51.280Z,9.27
2018-07-27T09:18:20.007Z,8.03
2018-07-27T09:20:49.010Z,7.57
2018-07-27T09:23:17.668Z,9.93
2018-07-27T09:25:46.497Z,7.77
2018-07-27T09:28:15.272Z,12.87
2018-07-27T09:30:43.924Z,7.80
2018-07-27T09:33:12.580Z,8.30
2018-07-27T09:35:41.318Z,10.80
2018-07-27T09:38:09.951Z,10.47
2018-07-27T09:40:39.088Z,10.53
2018-07-27T09:43:07.816Z,8.47
2018-07-27T09:45:36.484Z,7.53
2018-07-27T09:48:05.236Z,7.43
2018-07-27T09:50:33.991Z,6.70
2018-07-27T09:53:02.777Z,9.97
2018-07-27T09:55:31.997Z,7.57
2018-07-27T09:58:00.820Z,10.70
2018-07-27T10:00:35.485Z,12.57
2018-07-27T10:03:04.253Z,12.70
2018-07-27T10:05:32.923Z,9.53
2018-07-27T10:08:01.597Z,9.47
2018-07-27T10:10:30.417Z,8.13
2018-07-27T10:12:59.645Z,12.80
2018-07-27T10:15:28.897Z,7.93
2018-07-27T10:17:57.635Z,8.10
2018-07-27T10:20:26.416Z,6.83
2018-07-27T10:22:55.107Z,6.87
2018-07-27T10:25:23.756Z,8.43
2018-07-27T10:27:52.482Z,10.00
2018-07-27T10:30:21.326Z,10.90
2018-07-27T10:32:50.017Z,7.63
2018-07-27T10:35:18.695Z,7.87
2018-07-27T10:37:47.895Z,7.47
2018-07-27T10:40:16.632Z,10.37
2018-07-27T10:42:45.305Z,8.57
2018-07-27T10:45:14.321Z,7.50
2018-07-27T10:47:42.983Z,9.07
2018-07-27T10:50:11.730Z,6.27
2018-07-27T10:52:40.637Z,8.20
2018-07-27T10:55:09.703Z,7.70
2018-07-27T10:57:38.733Z,7.70
2018-07-27T11:00:11.619Z,8.03
2018-07-27T11:02:40.542Z,7.83
2018-07-27T11:05:09.619Z,9.37
2018-07-27T11:07:38.315Z,6.87
2018-07-27T11:10:07.795Z,8.63
2018-07-27T11:12:36.137Z,9.77
2018-07-27T11:15:06.241Z,8.70
2018-07-27T11:17:34.904Z,10.03
2018-07-27T11:20:04.468Z,9.90
2018-07-27T11:22:33.579Z,8.43
2018-07-27T11:25:02.203Z,7.87
2018-07-27T11:27:31.048Z,9.37
2018-07-27T11:29:59.677Z,8.17
2018-07-27T11:32:28.343Z,8.83
2018-07-27T11:34:57.009Z,9.70
2018-07-27T11:37:25.864Z,10.50
2018-07-27T11:39:54.720Z,10.40
2018-07-27T11:42:23.806Z,8.37
2018-07-27T11:44:52.656Z,18.47
2018-07-27T11:47:21.336Z,14.47
2018-07-27T11:49:50.022Z,12.53
2018-07-27T11:52:18.687Z,7.67
2018-07-27T11:54:47.336Z,9.60
2018-07-27T11:57:16.480Z,11.60
2018-07-27T11:59:45.204Z,7.10
2018-07-27T12:02:14.172Z,7.30
2018-07-27T12:04:42.923Z,7.90
2018-07-27T12:07:11.602Z,8.77
2018-07-27T12:09:40.608Z,9.70
2018-07-27T12:12:09.550Z,8.17
2018-07-27T12:14:38.305Z,7.73
2018-07-27T12:17:07.092Z,7.47
2018-07-27T12:19:35.788Z,7.60
2018-07-27T12:22:04.642Z,10.67
2018-07-27T12:24:33.278Z,8.47
2018-07-27T12:27:01.998Z,8.10
2018-07-27T12:29:31.200Z,8.50
2018-07-27T12:31:59.996Z,9.27
2018-07-27T12:34:28.732Z,7.33
2018-07-27T12:36:57.388Z,6.03
2018-07-27T12:39:26.099Z,5.73
2018-07-27T12:41:54.887Z,5.83
2018-07-27T12:44:23.499Z,7.33
2018-07-27T12:46:52.159Z,10.37
2018-07-27T12:49:20.534Z,6.43
2018-07-27T12:51:49.235Z,7.27
2018-07-27T12:54:17.909Z,6.90
2018-07-27T12:56:46.645Z,9.30
2018-07-27T12:59:15.421Z,6.03
2018-07-27T13:01:44.135Z,10.30
2018-07-27T13:04:12.969Z,8.20
2018-07-27T13:06:41.609Z,5.80
2018-07-27T13:09:11.905Z,5.17
2018-07-27T13:11:41.353Z,6.17
2018-07-27T13:14:10.023Z,6.20
2018-07-27T13:16:38.631Z,7.77
2018-07-27T13:19:07.293Z,6.57
2018-07-27T13:21:35.983Z,6.27
2018-07-27T13:24:05.150Z,6.57
2018-07-27T13:26:34.133Z,5.90
2018-07-27T13:29:02.982Z,7.53
2018-07-27T13:31:56.080Z,9.47
2018-07-27T13:34:57.894Z,6.30
2018-07-27T13:37:27.852Z,8.43
2018-07-27T13:39:57.682Z,6.90
2018-07-27T13:42:27.573Z,8.53
2018-07-27T13:44:56.652Z,7.17
2018-07-27T13:47:25.310Z,6.60
2018-07-27T13:49:54.021Z,7.53
2018-07-27T13:52:22.860Z,6.40
2018-07-27T13:54:51.922Z,6.57
2018-07-27T13:57:20.671Z,7.00
2018-07-27T13:59:49.354Z,6.63
2018-07-27T14:02:18.038Z,7.73
2018-07-27T14:04:46.764Z,9.03
2018-07-27T14:07:15.762Z,7.43
2018-07-27T14:09:44.580Z,6.80
2018-07-27T14:12:13.279Z,8.30
2018-07-27T14:14:41.911Z,7.63
2018-07-27T14:17:10.248Z,6.17
2018-07-27T14:19:38.892Z,8.30
2018-07-27T14:22:07.781Z,6.23
2018-07-27T14:24:36.492Z,7.10
2018-07-27T14:27:05.547Z,6.27
2018-07-27T14:29:34.258Z,7.67
2018-07-27T14:32:03.385Z,7.20
2018-07-27T14:34:32.056Z,6.27
2018-07-27T14:37:01.063Z,6.10
2018-07-27T14:39:29.998Z,5.70
2018-07-27T14:41:58.420Z,6.10
2018-07-27T14:44:27.087Z,6.57
2018-07-27T14:46:55.974Z,6.03
2018-07-27T14:49:24.642Z,6.23
2018-07-27T14:51:53.729Z,5.07
2018-07-27T14:54:22.377Z,5.23
2018-07-27T14:56:51.085Z,5.30
2018-07-27T14:59:19.737Z,5.67
2018-07-27T15:01:48.533Z,5.80
2018-07-27T15:04:17.216Z,7.80
2018-07-27T15:06:45.863Z,7.17
2018-07-27T15:09:15.174Z,6.70
2018-07-27T15:11:44.694Z,6.00
2018-07-27T15:14:13.351Z,7.23
2018-07-27T15:16:42.032Z,6.60
2018-07-27T15:19:10.653Z,6.87
2018-07-27T15:21:39.261Z,13.47
2018-07-27T15:24:08.001Z,10.30
2018-07-27T15:26:37.053Z,6.83
2018-07-27T15:29:05.869Z,11.50
2018-07-27T15:31:34.992Z,9.17
2018-07-27T15:34:03.750Z,8.07
2018-07-27T15:36:34.042Z,12.27
2018-07-27T15:39:10.946Z,9.03
2018-07-27T15:41:39.820Z,10.87
2018-07-27T15:44:08.505Z,8.23
2018-07-27T15:46:37.180Z,10.30
2018-07-27T15:49:06.082Z,6.37
2018-07-27T15:51:34.720Z,9.93
2018-07-27T15:54:03.372Z,7.60
2018-07-27T15:56:32.004Z,7.50
2018-07-27T15:59:00.617Z,8.37
2018-07-27T16:01:29.318Z,15.63
2018-07-27T16:03:58.121Z,7.67
2018-07-27T16:06:27.308Z,11.33
2018-07-27T16:08:56.004Z,14.87
2018-07-27T16:11:24.697Z,11.67
2018-07-27T16:13:53.382Z,8.27
2018-07-27T16:16:22.648Z,9.30
2018-07-27T16:18:51.586Z,7.72
2018-07-27T16:21:21.067Z,12.05
2018-07-27T16:23:49.741Z,25.10
2018-07-27T16:26:18.691Z,21.23
2018-07-27T16:28:47.863Z,17.87
2018-07-27T16:31:16.858Z,15.13
2018-07-27T16:33:45.804Z,15.05
2018-07-27T16:36:15.259Z,19.35
2018-07-27T16:38:44.303Z,20.00
2018-07-27T16:41:13.383Z,27.85
2018-07-27T16:43:42.573Z,18.05
2018-07-27T16:46:17.555Z,20.75
2018-07-27T16:48:51.968Z,17.87
2018-07-27T16:51:21.149Z,19.90
2018-07-27T16:53:50.190Z,22.45
2018-07-27T16:56:19.163Z,13.18
2018-07-27T16:58:48.171Z,15.63
2018-07-27T17:01:19.124Z,15.75
2018-07-27T17:03:48.103Z,13.70
2018-07-27T17:06:17.205Z,17.35
2018-07-27T17:08:46.360Z,14.30
2018-07-27T17:11:15.721Z,14.18
2018-07-27T17:13:47.645Z,13.08
2018-07-27T17:16:16.732Z,11.88
2018-07-27T17:18:45.822Z,12.58
2018-07-27T17:21:14.818Z,17.62
2018-07-27T17:23:43.796Z,11.18
2018-07-27T17:26:12.722Z,10.72
2018-07-27T17:28:41.998Z,11.80
2018-07-27T17:31:11.014Z,14.15
2018-07-27T17:33:40.240Z,14.07
2018-07-27T17:36:09.188Z,10.60
2018-07-27T17:38:38.508Z,9.98
2018-07-27T17:41:08.212Z,8.93
2018-07-27T17:43:37.529Z,9.43
2018-07-27T17:46:07.208Z,10.93
2018-07-27T17:48:36.312Z,10.03
2018-07-27T17:51:05.620Z,10.78
2018-07-27T17:53:34.894Z,12.05
2018-07-27T17:56:03.868Z,43.28
2018-07-27T17:58:32.846Z,36.73
2018-07-27T18:01:01.801Z,12.18
2018-07-27T18:03:30.801Z,11.80
2018-07-27T18:05:59.760Z,11.55
2018-07-27T18:08:29.140Z,11.97
2018-07-27T18:10:58.096Z,8.98
2018-07-27T18:13:27.089Z,12.10
2018-07-27T18:15:56.006Z,9.35
2018-07-27T18:18:24.965Z,10.00
2018-07-27T18:20:53.928Z,13.58
2018-07-27T18:23:23.428Z,14.50
2018-07-27T18:25:52.463Z,12.78
2018-07-27T18:28:21.774Z,27.65
2018-07-27T18:30:50.815Z,13.75
2018-07-27T18:33:19.885Z,12.25
2018-07-27T18:35:49.028Z,9.78
2018-07-27T18:38:18.084Z,10.95
2018-07-27T18:40:47.817Z,11.75
2018-07-27T18:43:16.797Z,9.43
2018-07-27T18:45:45.795Z,9.68
2018-07-27T18:48:14.875Z,9.18
2018-07-27T18:50:43.879Z,11.70
2018-07-27T18:53:12.877Z,16.80
2018-07-27T18:55:41.908Z,45.58
2018-07-27T18:58:10.997Z,47.15
2018-07-27T19:00:39.980Z,13.13
2018-07-27T19:03:09.055Z,10.82
2018-07-27T19:05:38.039Z,9.88
2018-07-27T19:08:07.013Z,12.05
2018-07-27T19:10:36.031Z,11.12
2018-07-27T19:13:05.269Z,11.45
2018-07-27T19:15:34.349Z,11.88
2018-07-27T19:18:03.391Z,11.28
2018-07-27T19:20:32.385Z,12.85
2018-07-27T19:23:01.381Z,11.95
2018-07-27T19:25:30.357Z,12.70
2018-07-27T19:27:59.559Z,11.57
2018-07-27T19:30:28.625Z,12.55
2018-07-27T19:32:57.789Z,15.63
2018-07-27T19:35:26.889Z,13.88
2018-07-27T19:37:55.952Z,11.33
2018-07-27T19:40:24.986Z,12.40
2018-07-27T19:42:53.956Z,12.05
2018-07-27T19:45:22.698Z,13.00
2018-07-27T19:47:51.782Z,11.55
2018-07-27T19:50:20.791Z,12.03
2018-07-27T19:52:50.309Z,12.65
2018-07-27T19:55:19.348Z,11.63
2018-07-27T19:57:48.409Z,12.85
2018-07-27T20:00:17.405Z,11.48
2018-07-27T20:02:46.404Z,12.93
2018-07-27T20:05:15.374Z,12.58
2018-07-27T20:07:44.366Z,13.28
2018-07-27T20:10:13.446Z,14.07
2018-07-27T20:12:42.448Z,13.60
2018-07-27T20:15:11.606Z,13.85
2018-07-27T20:17:40.562Z,12.95
2018-07-27T20:20:09.917Z,13.38
2018-07-27T20:22:39.060Z,11.95
2018-07-27T20:25:08.364Z,14.80
2018-07-27T20:27:37.314Z,13.15
2018-07-27T20:30:06.798Z,11.70
2018-07-27T20:32:35.782Z,18.73
2018-07-27T20:35:04.849Z,13.45
2018-07-27T20:37:33.874Z,15.38
2018-07-27T20:40:03.271Z,15.40
2018-07-27T20:42:32.310Z,15.95
2018-07-27T20:45:01.285Z,17.75
2018-07-27T20:47:30.431Z,30.05
2018-07-27T20:49:59.523Z,16.37
2018-07-27T20:52:29.215Z,17.48
2018-07-27T20:54:58.161Z,16.55
2018-07-27T20:57:27.463Z,15.43
2018-07-27T20:59:56.457Z,15.40
2018-07-27T21:02:25.539Z,16.80
2018-07-27T21:04:54.493Z,16.90
2018-07-27T21:07:24.154Z,17.40
2018-07-27T21:09:53.230Z,16.82
2018-07-27T21:12:22.341Z,16.40
2018-07-27T21:14:51.402Z,16.65
2018-07-27T21:17:20.503Z,15.58
2018-07-27T21:19:49.511Z,16.60
2018-07-27T21:22:18.443Z,16.85
2018-07-27T21:24:47.408Z,16.50
2018-07-27T21:27:16.708Z,16.50
2018-07-27T21:29:45.901Z,15.65
2018-07-27T21:32:14.864Z,16.82
2018-07-27T21:34:43.854Z,17.00
2018-07-27T21:37:13.460Z,16.17
2018-07-27T21:39:42.501Z,16.70
2018-07-27T21:42:12.595Z,17.65
2018-07-27T21:44:41.804Z,15.83
2018-07-27T21:47:11.738Z,16.17
2018-07-27T21:49:40.697Z,16.55
2018-07-27T21:52:09.645Z,17.57
2018-07-27T21:54:38.622Z,15.35
2018-07-27T21:57:07.561Z,15.83
2018-07-27T21:59:36.710Z,28.02
2018-07-27T22:02:05.675Z,18.70
2018-07-27T22:04:34.846Z,17.70
2018-07-27T22:07:03.822Z,16.97
2018-07-27T22:09:32.784Z,18.10
2018-07-27T22:12:01.773Z,18.15
2018-07-27T22:14:30.784Z,17.23
2018-07-27T22:16:59.776Z,18.07
2018-07-27T22:19:28.716Z,18.67
2018-07-27T22:21:57.778Z,18.02
2018-07-27T22:24:26.727Z,17.92
2018-07-27T22:26:55.672Z,18.77
2018-07-27T22:29:24.593Z,18.15
2018-07-27T22:31:53.556Z,20.08
2018-07-27T22:34:22.542Z,23.00
2018-07-27T22:36:53.032Z,18.37
2018-07-27T22:39:22.270Z,18.73
2018-07-27T22:41:51.214Z,16.95
2018-07-27T22:44:20.152Z,18.12
2018-07-27T22:46:49.150Z,16.52
2018-07-27T22:49:18.092Z,15.78
2018-07-27T22:51:47.032Z,16.80
2018-07-27T22:54:15.953Z,17.55
2018-07-27T22:56:45.067Z,17.17
2018-07-27T22:59:14.490Z,18.32
2018-07-27T23:01:43.467Z,17.73
2018-07-27T23:04:12.515Z,16.25
2018-07-27T23:06:41.464Z,17.17
2018-07-27T23:09:11.777Z,17.73
2018-07-27T23:11:40.730Z,15.55
2018-07-27T23:14:10.061Z,16.60
2018-07-27T23:16:39.343Z,16.85
2018-07-27T23:19:08.260Z,18.35
2018-07-27T23:21:37.225Z,18.20
2018-07-27T23:24:06.406Z,18.48
2018-07-27T23:26:35.683Z,18.05
2018-07-27T23:29:04.678Z,16.20
2018-07-27T23:31:33.979Z,19.05
2018-07-27T23:34:02.926Z,19.50
2018-07-27T23:36:31.862Z,18.75
2018-07-27T23:39:01.159Z,19.02
2018-07-27T23:41:30.298Z,18.57
2018-07-27T23:43:59.374Z,17.90
2018-07-27T23:46:28.322Z,17.32
2018-07-27T23:48:57.396Z,17.55
2018-07-27T23:51:26.302Z,17.02
2018-07-27T23:53:55.716Z,17.20
2018-07-27T23:56:24.669Z,17.23
2018-07-27T23:58:54.404Z,15.72
